Time;durP1;ratioP1;P1;durP2;ratioP2;P2;SDS_P1;SDS_P2;PMS_P1;PMS_P2;Temp;Humidity;BMP_temperature;BMP_pressure;BME280_temperature;BME280_humidity;BME280_pressure;Samples;Min_cycle;Max_cycle;Signal;HPM_P1;HPM_P2
2021/12/06 00:01:35;;;;;;;5.37;3.40;;;5.00;99.90;;;;;;4940713;29;20420;-57
2021/12/06 00:04:19;;;;;;;5.97;3.50;;;5.10;99.90;;;;;;4968406;28;20483;-58
2021/12/06 00:06:49;;;;;;;2.90;2.70;;;5.10;99.90;;;;;;4976529;28;20396;-57
2021/12/06 00:09:18;;;;;;;5.33;3.13;;;5.10;99.90;;;;;;4974849;28;20470;-55
2021/12/06 00:11:45;;;;;;;4.50;3.80;;;5.10;99.90;;;;;;4977293;28;20741;-53
2021/12/06 00:14:11;;;;;;;4.67;3.33;;;5.10;99.90;;;;;;4974824;28;20452;-57
2021/12/06 00:16:37;;;;;;;3.60;3.30;;;5.10;99.90;;;;;;4976077;28;20393;-56
2021/12/06 00:19:03;;;;;;;3.43;3.13;;;5.00;99.90;;;;;;4974881;28;20703;-55
2021/12/06 00:21:29;;;;;;;4.30;3.90;;;5.00;99.90;;;;;;4959728;28;20968;-55
2021/12/06 00:23:56;;;;;;;4.30;3.30;;;5.00;99.90;;;;;;4975076;28;20432;-56
2021/12/06 00:26:21;;;;;;;3.80;3.40;;;5.00;99.90;;;;;;4975994;28;20409;-54
2021/12/06 00:28:49;;;;;;;4.40;4.00;;;5.00;99.90;;;;;;4975180;28;20499;-57
2021/12/06 00:31:15;;;;;;;6.40;4.10;;;5.10;99.90;;;;;;4975104;28;20674;-58
2021/12/06 00:33:43;;;;;;;5.47;4.80;;;5.10;99.90;;;;;;4975675;28;20411;-57
2021/12/06 00:36:16;;;;;;;7.30;3.77;;;5.20;99.90;;;;;;4974479;28;20467;-53
2021/12/06 00:38:45;;;;;;;4.40;4.00;;;5.20;99.90;;;;;;4975919;28;20421;-57
2021/12/06 00:41:10;;;;;;;6.63;3.47;;;5.20;99.90;;;;;;4975887;28;21024;-55
2021/12/06 00:43:36;;;;;;;5.60;4.10;;;5.10;99.90;;;;;;4975398;28;20523;-56
2021/12/06 00:46:02;;;;;;;5.03;4.53;;;5.10;99.90;;;;;;4976658;28;20173;-57
2021/12/06 00:48:27;;;;;;;5.70;4.13;;;5.20;99.90;;;;;;4975262;28;20565;-58
2021/12/06 00:50:53;;;;;;;6.87;4.87;;;5.20;99.90;;;;;;4975641;28;20540;-56
2021/12/06 00:53:19;;;;;;;6.13;4.20;;;5.20;99.90;;;;;;4973485;28;20543;-57
2021/12/06 00:55:45;;;;;;;4.50;4.10;;;5.20;99.90;;;;;;4973257;28;20424;-55
2021/12/06 00:58:10;;;;;;;4.27;3.87;;;5.30;99.90;;;;;;4975440;28;20173;-57
2021/12/06 01:00:41;;;;;;;4.80;4.40;;;5.30;99.90;;;;;;4974327;28;20211;-57
2021/12/06 01:03:14;;;;;;;5.70;4.67;;;5.30;99.90;;;;;;4975524;28;20626;-57
2021/12/06 01:05:41;;;;;;;5.57;4.70;;;5.20;99.90;;;;;;4973953;28;20916;-55
2021/12/06 01:08:07;;;;;;;9.03;4.40;;;5.20;99.90;;;;;;4975276;28;20452;-55
2021/12/06 01:10:34;;;;;;;6.03;5.10;;;5.20;99.90;;;;;;4973704;28;20475;-57
2021/12/06 01:13:00;;;;;;;5.17;4.67;;;5.20;99.90;;;;;;4975318;28;20859;-58
2021/12/06 01:15:27;;;;;;;6.43;5.80;;;5.20;99.90;;;;;;4973690;28;20778;-56
2021/12/06 01:17:54;;;;;;;6.63;5.80;;;5.20;99.90;;;;;;4974943;28;20459;-56
2021/12/06 01:20:24;;;;;;;6.80;6.20;;;5.20;99.90;;;;;;4974810;28;20468;-56
2021/12/06 01:22:58;;;;;;;6.83;5.80;;;5.30;99.90;;;;;;4955806;29;20477;-57
2021/12/06 01:29:01;;;;;;;7.60;6.90;;;5.40;99.90;;;;;;4956852;29;20449;-57
2021/12/06 01:41:33;;;;;;;8.40;7.60;;;5.30;99.90;;;;;;4968647;28;20390;-56
2021/12/06 01:44:27;;;;;;;10.37;5.93;;;5.30;99.90;;;;;;4971002;28;20409;-58
2021/12/06 01:47:00;;;;;;;6.10;5.50;;;5.30;99.90;;;;;;4972160;28;20907;-58
2021/12/06 01:49:29;;;;;;;6.63;5.83;;;5.30;99.90;;;;;;4973985;28;20969;-57
2021/12/06 01:51:57;;;;;;;7.37;6.63;;;5.30;99.90;;;;;;4973313;28;20424;-58
2021/12/06 01:54:23;;;;;;;8.20;7.40;;;5.40;99.90;;;;;;4957937;28;20468;-53
2021/12/06 01:56:51;;;;;;;8.27;6.50;;;5.40;99.90;;;;;;4973237;28;20814;-55
2021/12/06 01:59:17;;;;;;;7.30;6.60;;;5.40;99.90;;;;;;4974756;28;20436;-55
2021/12/06 02:01:43;;;;;;;8.00;6.90;;;5.40;99.90;;;;;;4973042;28;20464;-54
2021/12/06 02:04:09;;;;;;;9.30;8.40;;;5.40;99.90;;;;;;4974225;28;20443;-55
2021/12/06 02:06:37;;;;;;;8.37;7.37;;;5.40;99.90;;;;;;4973651;28;20496;-57
2021/12/06 02:09:08;;;;;;;7.50;6.80;;;5.40;99.90;;;;;;4972315;28;20464;-57
2021/12/06 02:11:36;;;;;;;9.20;8.23;;;5.40;99.90;;;;;;4968019;28;20901;-54
2021/12/06 02:14:36;;;;;;;13.17;8.70;;;5.30;99.90;;;;;;4975311;28;20400;-55
2021/12/06 02:17:11;;;;;;;12.60;8.60;;;5.20;99.90;;;;;;4973746;28;20949;-58
2021/12/06 02:19:41;;;;;;;8.40;7.60;;;5.10;99.90;;;;;;4973762;28;20556;-56
2021/12/06 02:22:10;;;;;;;10.63;8.67;;;5.20;99.90;;;;;;4973448;28;20403;-57
2021/12/06 02:24:37;;;;;;;10.83;8.80;;;5.20;99.90;;;;;;4973856;28;20782;-57
2021/12/06 02:27:06;;;;;;;8.47;7.67;;;5.20;99.90;;;;;;4973659;28;20405;-55
2021/12/06 02:29:31;;;;;;;8.87;7.13;;;5.30;99.90;;;;;;5004714;22;20497;-61
2021/12/06 02:31:57;;;;;;;9.67;8.33;;;5.30;99.90;;;;;;4980162;28;20411;-61
2021/12/06 02:34:23;;;;;;;8.73;7.93;;;5.30;99.90;;;;;;4980405;28;20407;-55
2021/12/06 02:36:49;;;;;;;9.37;8.47;;;5.30;99.90;;;;;;4995400;28;20172;-61
2021/12/06 02:39:22;;;;;;;8.93;8.13;;;5.30;99.90;;;;;;5013610;28;20168;-59
2021/12/06 02:41:49;;;;;;;10.53;7.20;;;5.30;99.90;;;;;;5013487;28;20466;-61
2021/12/06 02:44:16;;;;;;;7.77;7.10;;;5.30;99.90;;;;;;5013838;28;20414;-59
2021/12/06 02:46:41;;;;;;;11.63;7.50;;;5.30;99.90;;;;;;5013017;28;20398;-59
2021/12/06 02:49:07;;;;;;;8.73;7.77;;;5.20;99.90;;;;;;5015548;28;20461;-61
2021/12/06 02:51:33;;;;;;;10.63;8.07;;;5.20;99.90;;;;;;5008211;28;20181;-61
2021/12/06 02:53:59;;;;;;;9.23;7.77;;;5.20;99.90;;;;;;5018524;28;20503;-60
2021/12/06 02:56:34;;;;;;;7.30;6.53;;;5.20;99.90;;;;;;5025065;28;20196;-61
2021/12/06 02:59:05;;;;;;;8.90;8.00;;;5.30;99.90;;;;;;5017479;28;20179;-60
2021/12/06 03:01:36;;;;;;;9.20;8.20;;;5.30;99.90;;;;;;5019241;28;20423;-60
2021/12/06 03:04:04;;;;;;;10.33;9.07;;;5.30;99.90;;;;;;5014055;28;20833;-61
2021/12/06 03:06:30;;;;;;;9.40;7.23;;;5.40;99.90;;;;;;5013574;28;20415;-61
2021/12/06 03:09:06;;;;;;;10.70;9.57;;;5.50;99.90;;;;;;5012664;28;20461;-61
2021/12/06 03:11:43;;;;;;;10.50;8.67;;;5.50;99.90;;;;;;5013887;28;20379;-61
2021/12/06 03:14:11;;;;;;;9.87;8.87;;;5.60;99.90;;;;;;5012940;28;20387;-62
2021/12/06 03:16:37;;;;;;;8.43;7.53;;;5.60;99.90;;;;;;5012984;28;20536;-61
2021/12/06 03:19:05;;;;;;;8.20;7.40;;;5.60;99.90;;;;;;5014568;28;20780;-60
2021/12/06 03:21:31;;;;;;;10.10;8.90;;;5.60;99.90;;;;;;5016391;28;20561;-61
2021/12/06 03:23:57;;;;;;;9.47;8.50;;;5.60;99.90;;;;;;5017295;28;20456;-61
2021/12/06 03:26:24;;;;;;;14.23;12.83;;;5.60;99.90;;;;;;5017871;28;20571;-61
2021/12/06 03:28:51;;;;;;;13.87;12.53;;;5.40;99.90;;;;;;5016062;28;20451;-60
2021/12/06 03:31:18;;;;;;;13.13;11.30;;;5.40;99.90;;;;;;5016533;28;20461;-61
2021/12/06 03:33:47;;;;;;;14.27;12.97;;;5.50;99.90;;;;;;5016691;28;20791;-61
2021/12/06 03:36:13;;;;;;;15.17;13.77;;;5.40;99.90;;;;;;5017272;28;20410;-61
2021/12/06 03:38:40;;;;;;;14.37;12.97;;;5.50;99.90;;;;;;5016462;28;20417;-60
2021/12/06 03:41:08;;;;;;;15.17;13.57;;;5.50;99.90;;;;;;5016871;28;20869;-61
2021/12/06 03:43:34;;;;;;;15.27;13.83;;;5.60;99.90;;;;;;5016839;28;20464;-60
2021/12/06 03:46:00;;;;;;;15.93;14.43;;;5.50;99.90;;;;;;5016769;28;20907;-59
2021/12/06 03:48:26;;;;;;;18.63;16.67;;;5.10;99.90;;;;;;5017684;28;20454;-60
2021/12/06 03:50:52;;;;;;;17.37;15.57;;;5.20;99.90;;;;;;5015912;28;21068;-61
2021/12/06 03:53:17;;;;;;;18.57;16.63;;;5.20;99.90;;;;;;5017488;28;20168;-60
2021/12/06 03:55:44;;;;;;;16.70;15.07;;;5.30;99.90;;;;;;5016060;28;20178;-61
2021/12/06 03:58:10;;;;;;;21.50;17.03;;;5.40;99.90;;;;;;5017117;28;20586;-60
2021/12/06 04:00:35;;;;;;;20.00;18.00;;;5.40;99.90;;;;;;4998204;28;20562;-58
2021/12/06 04:03:01;;;;;;;21.53;19.33;;;5.30;99.90;;;;;;5016660;28;20176;-61
2021/12/06 04:05:28;;;;;;;19.57;17.57;;;5.30;99.90;;;;;;5015673;28;20180;-60
2021/12/06 04:07:54;;;;;;;22.80;20.53;;;5.30;99.90;;;;;;5017327;28;20450;-61
2021/12/06 04:10:19;;;;;;;19.57;17.77;;;5.30;99.90;;;;;;5015528;28;20426;-61
2021/12/06 04:12:45;;;;;;;20.47;18.20;;;5.50;99.90;;;;;;5016227;28;20647;-60
2021/12/06 04:15:13;;;;;;;22.10;19.90;;;5.50;99.90;;;;;;5016898;28;20172;-61
2021/12/06 04:17:39;;;;;;;21.17;19.07;;;5.60;99.90;;;;;;5015818;28;20172;-60
2021/12/06 04:20:09;;;;;;;23.47;21.10;;;5.60;99.90;;;;;;5016689;28;20481;-58
2021/12/06 04:22:35;;;;;;;27.23;24.43;;;5.50;99.90;;;;;;5015475;28;20419;-61
2021/12/06 04:25:02;;;;;;;24.03;21.50;;;5.30;99.90;;;;;;5016821;28;20906;-60
2021/12/06 04:27:29;;;;;;;24.87;22.27;;;5.20;99.90;;;;;;5016023;28;20880;-60
2021/12/06 04:29:55;;;;;;;22.03;19.73;;;5.10;99.90;;;;;;5014832;28;20474;-61
2021/12/06 04:32:22;;;;;;;25.07;22.37;;;5.20;99.90;;;;;;5015465;28;20446;-61
2021/12/06 04:34:47;;;;;;;25.40;19.90;;;5.10;99.90;;;;;;5016248;28;20403;-60
2021/12/06 04:37:13;;;;;;;22.13;19.80;;;5.20;99.90;;;;;;5014822;28;20799;-59
2021/12/06 04:39:39;;;;;;;24.60;22.10;;;5.30;99.90;;;;;;5016449;28;20191;-60
2021/12/06 04:42:06;;;;;;;21.37;19.27;;;5.40;99.90;;;;;;5014980;28;20633;-61
2021/12/06 04:44:32;;;;;;;24.73;22.10;;;5.50;99.90;;;;;;5016195;28;20786;-61
2021/12/06 04:46:58;;;;;;;21.33;19.10;;;5.50;99.90;;;;;;5014551;28;20438;-59
2021/12/06 04:49:26;;;;;;;23.30;20.80;;;5.60;99.90;;;;;;5013027;28;20282;-60
2021/12/06 04:51:54;;;;;;;22.13;19.93;;;5.40;99.90;;;;;;5014856;28;20459;-59
2021/12/06 04:54:24;;;;;;;25.97;22.53;;;5.50;99.90;;;;;;5015689;28;20415;-59
2021/12/06 04:56:55;;;;;;;26.00;23.33;;;5.50;99.90;;;;;;5014416;28;20466;-60
2021/12/06 04:59:30;;;;;;;28.37;22.17;;;5.60;99.90;;;;;;5015929;28;20494;-60
2021/12/06 05:01:58;;;;;;;23.80;21.20;;;5.70;99.90;;;;;;5016456;28;20411;-60
2021/12/06 05:04:29;;;;;;;25.33;20.83;;;5.60;99.90;;;;;;5014452;28;20797;-60
2021/12/06 05:07:01;;;;;;;25.83;22.47;;;5.60;99.90;;;;;;5016013;28;20760;-60
2021/12/06 05:09:35;;;;;;;24.43;21.83;;;5.70;99.90;;;;;;5014096;28;20966;-60
2021/12/06 05:12:01;;;;;;;26.80;22.33;;;5.70;99.90;;;;;;5015822;28;20398;-61
2021/12/06 05:14:27;;;;;;;25.40;22.20;;;5.70;99.90;;;;;;5015203;28;20416;-60
2021/12/06 05:16:54;;;;;;;27.47;22.30;;;5.70;99.90;;;;;;5014639;28;20463;-60
2021/12/06 05:19:19;;;;;;;30.47;25.20;;;5.70;99.90;;;;;;5015155;28;20446;-60
2021/12/06 05:21:45;;;;;;;24.37;20.57;;;5.70;99.90;;;;;;5014266;28;20446;-61
2021/12/06 05:24:11;;;;;;;22.27;18.37;;;5.70;99.90;;;;;;5014985;28;20571;-61
2021/12/06 05:26:38;;;;;;;20.93;18.30;;;5.60;99.90;;;;;;5014436;28;20176;-62
2021/12/06 05:29:06;;;;;;;24.50;20.00;;;5.60;99.90;;;;;;5014195;28;20638;-56
2021/12/06 05:31:34;;;;;;;23.53;19.27;;;5.70;99.90;;;;;;5015298;28;20472;-59
2021/12/06 05:34:06;;;;;;;22.63;18.90;;;5.60;99.90;;;;;;5014707;28;20427;-59
2021/12/06 05:36:32;;;;;;;24.80;22.00;;;5.30;99.90;;;;;;5015122;28;20410;-61
2021/12/06 05:38:58;;;;;;;21.60;18.37;;;5.20;99.90;;;;;;5014382;28;20435;-61
2021/12/06 05:41:24;;;;;;;22.70;20.10;;;5.30;99.90;;;;;;4997196;28;20219;-59
2021/12/06 05:43:50;;;;;;;25.40;22.00;;;5.30;99.90;;;;;;5003195;28;20950;-60
2021/12/06 05:46:18;;;;;;;25.53;20.97;;;5.40;99.90;;;;;;4996479;28;20282;-60
2021/12/06 05:48:44;;;;;;;23.73;20.17;;;5.60;99.90;;;;;;5014139;28;20303;-58
2021/12/06 05:51:10;;;;;;;23.87;21.30;;;5.60;99.90;;;;;;5013997;28;20533;-60
2021/12/06 05:53:36;;;;;;;24.60;21.57;;;5.60;99.90;;;;;;5014188;28;20558;-61
2021/12/06 05:56:02;;;;;;;24.03;19.83;;;5.50;99.90;;;;;;5013933;28;20210;-60
2021/12/06 05:58:29;;;;;;;20.77;17.77;;;5.40;99.90;;;;;;5014143;28;20208;-60
2021/12/06 06:00:56;;;;;;;23.30;20.80;;;5.30;99.90;;;;;;5013972;28;20924;-61
2021/12/06 06:03:22;;;;;;;22.93;19.40;;;5.30;99.90;;;;;;5014380;28;20435;-60
2021/12/06 06:05:48;;;;;;;24.67;21.37;;;5.40;99.90;;;;;;5014181;28;20411;-61
2021/12/06 06:08:14;;;;;;;24.50;18.10;;;5.40;99.90;;;;;;5013987;28;20443;-60
2021/12/06 06:10:40;;;;;;;23.13;19.80;;;5.50;99.90;;;;;;5013542;28;20274;-61
2021/12/06 06:13:07;;;;;;;17.70;15.30;;;5.60;99.90;;;;;;4996806;28;20423;-61
2021/12/06 06:15:33;;;;;;;20.63;16.67;;;5.50;99.90;;;;;;5013228;28;20427;-60
2021/12/06 06:18:00;;;;;;;20.80;18.00;;;5.40;99.90;;;;;;5014813;28;20407;-60
2021/12/06 06:20:44;;;;;;;18.70;16.70;;;5.30;99.90;;;;;;5013056;28;20451;-60
2021/12/06 06:23:10;;;;;;;17.93;15.93;;;5.40;99.90;;;;;;5014206;28;20494;-61
2021/12/06 06:25:36;;;;;;;21.90;17.97;;;5.40;99.90;;;;;;5013216;28;20437;-61
2021/12/06 06:28:03;;;;;;;18.67;16.60;;;5.50;99.90;;;;;;5014281;28;20234;-60
2021/12/06 06:30:29;;;;;;;18.67;16.70;;;5.60;99.90;;;;;;5012003;28;20462;-58
2021/12/06 06:32:56;;;;;;;21.73;19.43;;;5.60;99.90;;;;;;5013928;28;20446;-60
2021/12/06 06:35:23;;;;;;;22.80;17.90;;;5.50;99.90;;;;;;5013038;28;21034;-59
2021/12/06 06:37:49;;;;;;;22.30;19.90;;;5.50;99.90;;;;;;5014800;28;20880;-59
2021/12/06 06:40:15;;;;;;;20.10;17.60;;;5.50;99.90;;;;;;5014056;28;20437;-60
2021/12/06 06:42:42;;;;;;;19.97;17.80;;;5.40;99.90;;;;;;5014067;28;20418;-59
2021/12/06 06:45:10;;;;;;;21.80;19.47;;;5.30;99.90;;;;;;5012916;28;20498;-60
2021/12/06 06:47:36;;;;;;;24.27;19.83;;;5.40;99.90;;;;;;5013962;28;20411;-60
2021/12/06 06:50:02;;;;;;;21.97;18.80;;;5.40;99.90;;;;;;5012957;28;20577;-62
2021/12/06 06:52:28;;;;;;;25.37;20.30;;;5.30;99.90;;;;;;5012814;28;20582;-62
2021/12/06 06:54:55;;;;;;;27.70;20.10;;;5.40;99.90;;;;;;4995770;28;20477;-61
2021/12/06 06:57:21;;;;;;;26.13;20.37;;;5.40;99.90;;;;;;4994993;28;20187;-60
2021/12/06 06:59:47;;;;;;;23.27;18.50;;;5.20;99.90;;;;;;5013850;28;21013;-61
2021/12/06 07:02:14;;;;;;;26.23;21.30;;;5.10;99.90;;;;;;5013766;28;20460;-61
2021/12/06 07:04:40;;;;;;;22.37;18.20;;;5.20;99.90;;;;;;4994450;28;20848;-61
2021/12/06 07:07:05;;;;;;;26.30;20.00;;;5.20;99.90;;;;;;5014057;28;20411;-62
2021/12/06 07:09:31;;;;;;;24.40;19.50;;;5.40;99.90;;;;;;4978282;28;20834;-61
2021/12/06 07:11:58;;;;;;;25.30;18.93;;;5.40;99.90;;;;;;5013998;28;20602;-59
2021/12/06 07:14:24;;;;;;;27.27;21.20;;;5.30;99.90;;;;;;5012763;28;20263;-62
2021/12/06 07:16:50;;;;;;;26.37;19.70;;;5.40;99.90;;;;;;4996791;28;20439;-60
2021/12/06 07:19:16;;;;;;;28.70;22.83;;;5.20;99.90;;;;;;5014463;28;20579;-59
2021/12/06 07:21:42;;;;;;;25.60;19.40;;;5.10;99.90;;;;;;5013305;28;20469;-60
2021/12/06 07:24:08;;;;;;;23.10;18.33;;;5.10;99.90;;;;;;5014699;28;20172;-60
2021/12/06 07:26:34;;;;;;;26.13;20.07;;;5.00;99.90;;;;;;5012741;28;20547;-60
2021/12/06 07:29:01;;;;;;;25.83;20.53;;;4.90;99.90;;;;;;5013610;28;20790;-60
2021/12/06 07:31:27;;;;;;;28.90;22.73;;;5.00;99.90;;;;;;5012109;28;20490;-61
2021/12/06 07:33:53;;;;;;;30.53;21.57;;;4.90;99.90;;;;;;5013021;28;20525;-58
2021/12/06 07:36:29;;;;;;;23.90;18.73;;;4.80;99.90;;;;;;5012765;28;20440;-58
2021/12/06 07:38:55;;;;;;;24.63;18.50;;;4.90;99.90;;;;;;4995215;28;20415;-61
2021/12/06 07:41:23;;;;;;;26.10;20.17;;;4.80;99.90;;;;;;5012065;28;20541;-61
2021/12/06 07:43:49;;;;;;;23.23;18.43;;;4.80;99.90;;;;;;5013010;28;20256;-61
2021/12/06 07:46:16;;;;;;;22.40;17.90;;;5.00;99.90;;;;;;5009294;28;20458;-60
2021/12/06 07:48:42;;;;;;;24.30;18.60;;;5.10;99.90;;;;;;4994106;28;20447;-60
2021/12/06 07:51:07;;;;;;;26.10;19.30;;;5.20;99.90;;;;;;4993714;28;20432;-60
2021/12/06 07:53:35;;;;;;;23.53;19.03;;;5.20;99.90;;;;;;5013027;28;20438;-61
2021/12/06 07:56:01;;;;;;;24.77;19.17;;;5.10;99.90;;;;;;5013497;28;20452;-60
2021/12/06 07:58:27;;;;;;;23.77;19.13;;;5.20;99.90;;;;;;4993813;28;20427;-60
2021/12/06 08:00:53;;;;;;;23.17;18.57;;;5.40;99.90;;;;;;4992208;28;20931;-59
2021/12/06 08:03:22;;;;;;;23.47;18.03;;;5.50;99.90;;;;;;5001623;28;20569;-60
2021/12/06 08:05:51;;;;;;;20.03;16.53;;;5.40;99.90;;;;;;4996472;28;20443;-60
2021/12/06 08:08:24;;;;;;;23.73;19.10;;;5.60;99.90;;;;;;5015132;28;20815;-59
2021/12/06 08:11:14;;;;;;;22.73;18.40;;;5.60;99.90;;;;;;5016799;28;20418;-61
2021/12/06 08:13:44;;;;;;;22.60;17.70;;;5.70;99.90;;;;;;5016301;28;20442;-60
2021/12/06 08:16:13;;;;;;;21.50;17.27;;;5.70;99.90;;;;;;5015567;28;20793;-60
2021/12/06 08:18:39;;;;;;;21.97;17.30;;;5.60;99.90;;;;;;4998363;28;20399;-59
2021/12/06 08:21:05;;;;;;;22.63;17.27;;;5.60;99.90;;;;;;5015409;28;21006;-60
2021/12/06 08:23:31;;;;;;;19.30;16.37;;;5.60;99.90;;;;;;5016057;28;20954;-60
2021/12/06 08:25:57;;;;;;;21.30;15.47;;;5.60;99.90;;;;;;5016145;28;20442;-55
2021/12/06 08:28:23;;;;;;;19.33;15.73;;;5.60;99.90;;;;;;5015263;28;20236;-60
2021/12/06 08:30:51;;;;;;;21.53;17.00;;;5.80;99.90;;;;;;5016212;23;20887;-54
2021/12/06 08:33:18;;;;;;;23.13;15.77;;;5.80;99.90;;;;;;4981361;28;20411;-56
2021/12/06 08:35:47;;;;;;;19.63;15.40;;;5.90;99.90;;;;;;4998643;28;20415;-53
2021/12/06 08:38:14;;;;;;;18.23;14.90;;;5.90;99.90;;;;;;5014714;28;20554;-54
2021/12/06 08:40:42;;;;;;;23.00;17.60;;;6.00;99.90;;;;;;4998620;28;20426;-52
2021/12/06 08:43:09;;;;;;;18.80;16.67;;;6.00;99.90;;;;;;5015713;28;20434;-52
2021/12/06 08:45:35;;;;;;;18.50;14.47;;;5.90;99.90;;;;;;4966045;28;20409;-53
2021/12/06 08:48:02;;;;;;;19.30;15.00;;;5.90;99.90;;;;;;4998624;28;20455;-52
2021/12/06 08:50:30;;;;;;;21.73;17.30;;;5.90;99.90;;;;;;4998101;28;20982;-54
2021/12/06 08:52:56;;;;;;;19.30;16.43;;;5.80;99.90;;;;;;4998797;28;20399;-53
2021/12/06 08:55:23;;;;;;;21.03;16.47;;;5.80;99.90;;;;;;4962258;28;20419;-52
2021/12/06 08:57:50;;;;;;;18.20;15.27;;;5.80;99.90;;;;;;5016201;28;20418;-53
2021/12/06 09:00:21;;;;;;;20.07;16.07;;;6.00;99.90;;;;;;4997430;28;20526;-55
2021/12/06 09:02:47;;;;;;;20.63;16.10;;;6.10;99.90;;;;;;4983210;28;20437;-52
2021/12/06 09:05:13;;;;;;;20.23;15.77;;;5.90;99.90;;;;;;4996964;28;20423;-56
2021/12/06 09:07:39;;;;;;;20.87;15.67;;;6.10;99.90;;;;;;4998274;28;20406;-52
2021/12/06 09:10:07;;;;;;;20.10;15.83;;;6.10;99.90;;;;;;4981086;28;20435;-55
2021/12/06 09:12:32;;;;;;;18.17;15.23;;;6.10;99.90;;;;;;5014868;28;20175;-54
2021/12/06 09:15:01;;;;;;;18.77;15.47;;;6.10;99.90;;;;;;4997470;28;20419;-55
2021/12/06 09:17:28;;;;;;;17.03;14.60;;;6.20;99.90;;;;;;4997765;28;20176;-55
2021/12/06 09:19:54;;;;;;;20.90;15.53;;;6.20;99.90;;;;;;5014524;28;20481;-55
2021/12/06 09:22:20;;;;;;;20.80;16.20;;;6.50;99.90;;;;;;4997328;28;20820;-54
2021/12/06 09:24:47;;;;;;;16.17;13.63;;;6.80;99.90;;;;;;4981516;28;20455;-57
2021/12/06 09:27:13;;;;;;;13.53;11.90;;;6.90;99.90;;;;;;4996501;28;20431;-54
2021/12/06 09:29:39;;;;;;;15.47;12.20;;;6.70;99.90;;;;;;4997257;28;20803;-50
2021/12/06 09:32:08;;;;;;;15.20;11.73;;;6.50;99.90;;;;;;4996297;28;20419;-53
2021/12/06 09:34:38;;;;;;;13.80;11.20;;;6.60;99.90;;;;;;4982293;28;20408;-52
2021/12/06 09:37:05;;;;;;;17.00;13.10;;;6.60;99.90;;;;;;4980569;28;20427;-56
2021/12/06 09:39:32;;;;;;;16.70;13.40;;;6.60;99.90;;;;;;5015596;28;20418;-52
2021/12/06 09:41:58;;;;;;;16.87;14.20;;;6.70;99.90;;;;;;5013232;28;20427;-57
2021/12/06 09:44:24;;;;;;;19.07;15.07;;;6.80;99.90;;;;;;5014903;28;20409;-58
2021/12/06 09:46:51;;;;;;;16.57;14.37;;;6.90;99.90;;;;;;4996129;28;20419;-54
2021/12/06 09:49:19;;;;;;;17.63;13.10;;;6.70;99.90;;;;;;4997038;28;20455;-53
2021/12/06 09:51:56;;;;;;;17.60;13.77;;;6.40;99.90;;;;;;4996332;28;20448;-54
2021/12/06 09:54:28;;;;;;;15.57;12.97;;;6.70;99.90;;;;;;4997244;28;20403;-56
2021/12/06 09:56:55;;;;;;;19.17;13.23;;;6.50;99.90;;;;;;4996262;28;20404;-57
2021/12/06 09:59:24;;;;;;;17.07;14.33;;;6.30;99.90;;;;;;4980219;28;20475;-54
2021/12/06 10:01:58;;;;;;;18.10;15.23;;;6.50;99.90;;;;;;4996764;28;20515;-56
2021/12/06 10:04:27;;;;;;;19.20;14.90;;;6.60;99.90;;;;;;4964880;28;20825;-57
2021/12/06 10:06:53;;;;;;;20.37;14.60;;;6.50;99.90;;;;;;4963894;28;20432;-57
2021/12/06 10:09:21;;;;;;;19.60;14.77;;;6.60;99.90;;;;;;4980644;28;20470;-55
2021/12/06 10:11:48;;;;;;;17.97;14.53;;;6.50;99.90;;;;;;4979502;28;20479;-57
2021/12/06 10:14:15;;;;;;;16.70;13.40;;;6.50;99.90;;;;;;5014330;28;20434;-55
2021/12/06 10:16:42;;;;;;;15.77;12.30;;;6.40;99.90;;;;;;5013713;28;20877;-57
2021/12/06 10:19:08;;;;;;;16.00;13.13;;;6.60;99.90;;;;;;4980298;28;20416;-54
2021/12/06 10:21:37;;;;;;;15.23;12.67;;;6.80;99.90;;;;;;4980353;28;20426;-57
2021/12/06 10:24:06;;;;;;;14.03;11.97;;;7.00;99.90;;;;;;4978525;28;20430;-56
2021/12/06 10:26:32;;;;;;;15.90;12.37;;;7.00;99.90;;;;;;5013648;28;20412;-56
2021/12/06 10:29:06;;;;;;;13.80;11.37;;;7.00;99.90;;;;;;5012247;28;20462;-57
2021/12/06 10:31:33;;;;;;;16.97;12.60;;;6.90;99.90;;;;;;5013625;28;20216;-57
2021/12/06 10:33:58;;;;;;;19.70;12.70;;;7.10;99.90;;;;;;4979705;28;20427;-56
2021/12/06 10:36:26;;;;;;;15.93;11.90;;;7.00;99.90;;;;;;4996389;28;20420;-56
2021/12/06 10:38:59;;;;;;;14.67;11.97;;;7.30;99.90;;;;;;4979357;28;20185;-57
2021/12/06 10:41:26;;;;;;;12.80;10.23;;;7.40;99.90;;;;;;4964080;28;20423;-53
2021/12/06 10:44:04;;;;;;;13.67;10.67;;;7.60;99.90;;;;;;5013046;28;20431;-55
2021/12/06 10:46:31;;;;;;;13.10;10.83;;;7.80;99.90;;;;;;5013576;28;20436;-51
2021/12/06 10:49:00;;;;;;;11.20;8.97;;;7.90;99.90;;;;;;5012954;28;20460;-56
2021/12/06 10:51:27;;;;;;;11.80;9.67;;;7.90;99.90;;;;;;4996333;28;20420;-57
2021/12/06 10:54:01;;;;;;;11.90;8.93;;;7.80;99.90;;;;;;4994657;28;20426;-57
2021/12/06 10:57:03;;;;;;;13.50;10.03;;;8.00;99.90;;;;;;4996005;28;20398;-55
2021/12/06 10:59:30;;;;;;;13.20;8.40;;;7.80;99.90;;;;;;4982768;28;20459;-51
2021/12/06 11:02:05;;;;;;;9.70;7.70;;;7.60;99.90;;;;;;5013587;28;20431;-51
2021/12/06 11:04:31;;;;;;;11.03;8.07;;;7.40;99.90;;;;;;4995363;28;20405;-52
2021/12/06 11:07:05;;;;;;;9.80;7.97;;;7.70;99.90;;;;;;4996261;28;20422;-51
2021/12/06 11:09:32;;;;;;;11.00;6.73;;;7.70;99.90;;;;;;4996171;28;20458;-53
2021/12/06 11:12:04;;;;;;;8.40;6.33;;;7.70;99.90;;;;;;4978493;28;20418;-56
2021/12/06 11:14:34;;;;;;;9.70;7.50;;;7.60;99.90;;;;;;4996811;28;20397;-57
2021/12/06 11:17:04;;;;;;;9.40;7.17;;;7.70;99.90;;;;;;4979273;28;20422;-55
2021/12/06 11:19:31;;;;;;;10.17;7.40;;;7.70;99.90;;;;;;4979265;28;20472;-57
2021/12/06 11:22:00;;;;;;;9.67;7.50;;;7.70;99.90;;;;;;4980449;28;20432;-55
2021/12/06 11:24:43;;;;;;;9.50;7.30;;;7.70;99.90;;;;;;4974495;28;20437;-57
2021/12/06 11:27:14;;;;;;;7.83;6.40;;;7.30;99.90;;;;;;4996355;28;20936;-55
2021/12/06 11:29:41;;;;;;;8.57;7.00;;;7.60;99.90;;;;;;5012121;28;20453;-57
2021/12/06 11:32:07;;;;;;;7.57;6.23;;;7.80;99.90;;;;;;4994598;28;20421;-54
2021/12/06 11:34:42;;;;;;;13.83;7.27;;;7.90;99.90;;;;;;4994328;28;20433;-57
2021/12/06 11:37:31;;;;;;;11.53;6.30;;;8.00;99.90;;;;;;4995246;28;20175;-57
2021/12/06 11:40:04;;;;;;;14.20;6.90;;;7.70;99.90;;;;;;4995095;28;20452;-57
2021/12/06 11:42:30;;;;;;;14.50;6.73;;;7.70;99.90;;;;;;4999112;28;20417;-54
2021/12/06 11:44:56;;;;;;;9.93;6.57;;;7.50;99.90;;;;;;4982206;28;20437;-56
2021/12/06 11:47:22;;;;;;;8.43;5.87;;;7.60;99.90;;;;;;4983137;28;20494;-58
2021/12/06 11:49:56;;;;;;;8.80;6.20;;;7.80;99.90;;;;;;4981638;28;20461;-53
2021/12/06 11:52:29;;;;;;;7.90;5.70;;;8.00;99.90;;;;;;4999302;28;20173;-57
2021/12/06 11:54:56;;;;;;;6.60;5.50;;;7.90;99.90;;;;;;4982297;28;20819;-55
2021/12/06 11:57:30;;;;;;;7.77;6.77;;;7.70;99.90;;;;;;4978930;28;20451;-57
2021/12/06 12:00:16;;;;;;;8.70;5.57;;;7.90;99.90;;;;;;4995455;28;20432;-55
2021/12/06 12:02:48;;;;;;;8.87;6.43;;;8.20;99.90;;;;;;4979611;28;20509;-57
2021/12/06 12:05:34;;;;;;;9.43;5.40;;;8.40;99.90;;;;;;4978057;28;20447;-57
2021/12/06 12:08:07;;;;;;;7.97;6.80;;;8.30;99.90;;;;;;4979923;28;20386;-53
2021/12/06 12:10:50;;;;;;;10.70;6.67;;;8.30;99.90;;;;;;4978626;28;20454;-55
2021/12/06 12:13:26;;;;;;;5.77;5.17;;;8.30;99.90;;;;;;4996879;28;20406;-55
2021/12/06 12:15:55;;;;;;;6.83;5.33;;;8.30;99.90;;;;;;5002653;28;20427;-53
2021/12/06 12:18:21;;;;;;;7.50;6.20;;;8.50;99.90;;;;;;4982992;28;20414;-56
2021/12/06 12:20:47;;;;;;;8.10;6.40;;;8.50;99.90;;;;;;4980830;28;20456;-55
2021/12/06 12:23:15;;;;;;;10.90;5.60;;;8.10;99.90;;;;;;4982648;28;20183;-56
2021/12/06 12:25:54;;;;;;;6.47;5.77;;;7.90;99.90;;;;;;4998589;28;20846;-54
2021/12/06 12:28:28;;;;;;;5.30;4.67;;;7.60;99.90;;;;;;5015094;28;20457;-53
2021/12/06 12:30:58;;;;;;;5.90;4.70;;;7.90;99.90;;;;;;4998670;28;20458;-53
2021/12/06 12:33:24;;;;;;;10.57;4.87;;;8.10;99.90;;;;;;5015456;28;20379;-52
2021/12/06 12:35:54;;;;;;;5.77;4.53;;;8.00;99.90;;;;;;4996146;28;20433;-53
2021/12/06 12:38:26;;;;;;;6.23;5.43;;;8.20;99.90;;;;;;4997539;28;20406;-53
2021/12/06 12:40:58;;;;;;;5.97;4.40;;;8.20;99.90;;;;;;4996575;28;21041;-52
2021/12/06 12:43:37;;;;;;;5.60;4.60;;;8.30;99.90;;;;;;4981021;28;20479;-56
2021/12/06 12:46:15;;;;;;;7.40;5.73;;;8.30;99.90;;;;;;4996329;28;20437;-54
2021/12/06 12:48:57;;;;;;;9.17;4.70;;;8.30;99.90;;;;;;5014641;28;20449;-52
2021/12/06 12:51:30;;;;;;;5.77;4.80;;;8.20;99.90;;;;;;4995289;28;20449;-54
2021/12/06 12:54:14;;;;;;;5.57;4.60;;;8.00;99.90;;;;;;5014987;28;20431;-53
2021/12/06 12:56:42;;;;;;;5.47;4.20;;;7.80;99.90;;;;;;4996874;28;20910;-55
2021/12/06 12:59:35;;;;;;;6.20;4.13;;;8.10;99.90;;;;;;5004861;28;20414;-55
2021/12/06 13:02:13;;;;;;;8.40;4.57;;;8.20;99.90;;;;;;4996834;28;20407;-54
2021/12/06 13:04:57;;;;;;;7.00;5.10;;;8.30;99.90;;;;;;4996958;28;20509;-55
2021/12/06 13:07:27;;;;;;;7.43;4.83;;;8.40;99.90;;;;;;4995508;28;20975;-55